sensor_id;sensor_type;location;lat;lon;timestamp;pressure;altitude;pressure_sealevel;temperature;humidity
59787;BME280;45672;51.612;5.536;2023-05-15T00:00:24;101332.03;;;13.81;97.32
59787;BME280;45672;51.612;5.536;2023-05-15T00:02:49;101337.72;;;13.78;97.34
59787;BME280;45672;51.612;5.536;2023-05-15T00:05:15;101335.06;;;13.78;97.19
59787;BME280;45672;51.612;5.536;2023-05-15T00:07:40;101335.72;;;13.72;97.49
59787;BME280;45672;51.612;5.536;2023-05-15T00:10:06;101335.03;;;13.70;97.17
59787;BME280;45672;51.612;5.536;2023-05-15T00:12:32;101329.69;;;13.70;97.29
59787;BME280;45672;51.612;5.536;2023-05-15T00:14:58;101329.34;;;13.65;96.61
59787;BME280;45672;51.612;5.536;2023-05-15T00:17:24;101329.34;;;13.65;96.71
59787;BME280;45672;51.612;5.536;2023-05-15T00:19:49;101326.31;;;13.59;97.51
59787;BME280;45672;51.612;5.536;2023-05-15T00:22:14;101316.63;;;13.58;97.20
59787;BME280;45672;51.612;5.536;2023-05-15T00:24:40;101316.28;;;13.53;97.23
59787;BME280;45672;51.612;5.536;2023-05-15T00:27:05;101310.56;;;13.48;97.39
59787;BME280;45672;51.612;5.536;2023-05-15T00:29:31;101306.91;;;13.49;97.31
59787;BME280;45672;51.612;5.536;2023-05-15T00:31:56;101306.56;;;13.44;97.14
59787;BME280;45672;51.612;5.536;2023-05-15T00:34:21;101303.88;;;13.44;97.47
59787;BME280;45672;51.612;5.536;2023-05-15T00:36:47;101318.56;;;13.40;97.46
59787;BME280;45672;51.612;5.536;2023-05-15T00:39:12;101319.41;;;13.40;97.82
59787;BME280;45672;51.612;5.536;2023-05-15T00:41:39;101310.53;;;13.40;97.99
59787;BME280;45672;51.612;5.536;2023-05-15T00:44:06;101315.56;;;13.35;97.89
59787;BME280;45672;51.612;5.536;2023-05-15T00:46:31;101304.16;;;13.33;98.02
59787;BME280;45672;51.612;5.536;2023-05-15T00:48:57;101305.13;;;13.32;98.10
59787;BME280;45672;51.612;5.536;2023-05-15T00:51:24;101296.41;;;13.21;98.17
59787;BME280;45672;51.612;5.536;2023-05-15T00:53:50;101298.75;;;13.16;98.48
59787;BME280;45672;51.612;5.536;2023-05-15T00:56:19;101307.06;;;13.13;98.49
59787;BME280;45672;51.612;5.536;2023-05-15T00:58:45;101293.88;;;13.11;98.82
59787;BME280;45672;51.612;5.536;2023-05-15T01:01:15;101297.03;;;13.07;98.68
59787;BME280;45672;51.612;5.536;2023-05-15T01:03:41;101300.69;;;13.06;99.32
59787;BME280;45672;51.612;5.536;2023-05-15T01:06:07;101295.84;;;13.01;99.70
59787;BME280;45672;51.612;5.536;2023-05-15T01:08:47;101298.34;;;13.03;100.00
59787;BME280;45672;51.612;5.536;2023-05-15T01:11:14;101299.34;;;13.02;100.00
59787;BME280;45672;51.612;5.536;2023-05-15T01:13:40;101292.34;;;13.01;99.28
59787;BME280;45672;51.612;5.536;2023-05-15T01:16:07;101295.00;;;13.01;98.99
59787;BME280;45672;51.612;5.536;2023-05-15T01:18:32;101291.50;;;13.00;99.37
59787;BME280;45672;51.612;5.536;2023-05-15T01:32:19;101286.88;;;13.10;97.20
59787;BME280;45672;51.612;5.536;2023-05-15T01:34:52;101284.00;;;13.04;98.41
59787;BME280;45672;51.612;5.536;2023-05-15T01:37:24;101288.66;;;13.02;98.66
59787;BME280;45672;51.612;5.536;2023-05-15T01:39:53;101269.47;;;12.98;99.29
59787;BME280;45672;51.612;5.536;2023-05-15T01:42:22;101283.31;;;12.93;98.45
59787;BME280;45672;51.612;5.536;2023-05-15T01:44:53;101275.56;;;12.82;99.00
59787;BME280;45672;51.612;5.536;2023-05-15T01:47:39;101276.19;;;12.76;99.17
59787;BME280;45672;51.612;5.536;2023-05-15T01:50:06;101277.97;;;12.67;99.48
59787;BME280;45672;51.612;5.536;2023-05-15T01:52:35;101274.47;;;12.67;100.00
59787;BME280;45672;51.612;5.536;2023-05-15T01:55:05;101270.22;;;12.56;99.86
59787;BME280;45672;51.612;5.536;2023-05-15T01:57:32;101265.59;;;12.58;100.00
59787;BME280;45672;51.612;5.536;2023-05-15T01:59:59;101263.22;;;12.55;100.00
59787;BME280;45672;51.612;5.536;2023-05-15T02:02:26;101271.53;;;12.52;100.00
59787;BME280;45672;51.612;5.536;2023-05-15T02:04:52;101266.53;;;12.49;100.00
59787;BME280;45672;51.612;5.536;2023-05-15T02:07:19;101259.97;;;12.43;100.00
59787;BME280;45672;51.612;5.536;2023-05-15T02:09:45;101271.63;;;12.42;100.00
59787;BME280;45672;51.612;5.536;2023-05-15T02:12:10;101270.81;;;12.41;100.00
59787;BME280;45672;51.612;5.536;2023-05-15T02:14:38;101271.78;;;12.40;100.00
59787;BME280;45672;51.612;5.536;2023-05-15T02:17:05;101259.59;;;12.38;100.00
59787;BME280;45672;51.612;5.536;2023-05-15T02:19:30;101267.09;;;12.34;100.00
59787;BME280;45672;51.612;5.536;2023-05-15T02:21:55;101260.94;;;12.34;100.00
59787;BME280;45672;51.612;5.536;2023-05-15T02:24:21;101257.41;;;12.33;100.00
59787;BME280;45672;51.612;5.536;2023-05-15T02:32:46;101257.25;;;12.35;100.00
59787;BME280;45672;51.612;5.536;2023-05-15T02:38:16;101259.91;;;12.35;100.00
59787;BME280;45672;51.612;5.536;2023-05-15T02:40:44;101260.63;;;12.37;100.00
59787;BME280;45672;51.612;5.536;2023-05-15T02:43:12;101267.25;;;12.33;100.00
59787;BME280;45672;51.612;5.536;2023-05-15T02:45:38;101263.06;;;12.30;100.00
59787;BME280;45672;51.612;5.536;2023-05-15T02:48:05;101270.09;;;12.31;100.00
59787;BME280;45672;51.612;5.536;2023-05-15T02:50:31;101260.88;;;12.26;100.00
59787;BME280;45672;51.612;5.536;2023-05-15T02:53:03;101273.50;;;12.23;100.00
59787;BME280;45672;51.612;5.536;2023-05-15T02:55:28;101279.16;;;12.20;100.00
59787;BME280;45672;51.612;5.536;2023-05-15T02:57:54;101268.56;;;12.11;100.00
59787;BME280;45672;51.612;5.536;2023-05-15T03:00:19;101269.72;;;12.08;100.00
59787;BME280;45672;51.612;5.536;2023-05-15T03:02:45;101272.34;;;12.00;100.00
59787;BME280;45672;51.612;5.536;2023-05-15T03:05:10;101276.97;;;11.98;100.00
59787;BME280;45672;51.612;5.536;2023-05-15T03:07:35;101275.28;;;11.97;100.00
59787;BME280;45672;51.612;5.536;2023-05-15T03:10:01;101266.00;;;12.01;100.00
59787;BME280;45672;51.612;5.536;2023-05-15T03:12:27;101256.63;;;11.97;100.00
59787;BME280;45672;51.612;5.536;2023-05-15T03:14:52;101263.25;;;11.93;100.00
59787;BME280;45672;51.612;5.536;2023-05-15T03:17:17;101270.72;;;11.89;100.00
59787;BME280;45672;51.612;5.536;2023-05-15T03:19:43;101266.50;;;11.86;100.00
59787;BME280;45672;51.612;5.536;2023-05-15T03:22:08;101269.19;;;11.86;100.00
59787;BME280;45672;51.612;5.536;2023-05-15T03:24:33;101266.00;;;11.83;100.00
59787;BME280;45672;51.612;5.536;2023-05-15T03:26:58;101272.47;;;11.80;100.00
59787;BME280;45672;51.612;5.536;2023-05-15T03:29:24;101262.13;;;11.77;100.00
59787;BME280;45672;51.612;5.536;2023-05-15T03:31:49;101265.22;;;11.72;100.00
59787;BME280;45672;51.612;5.536;2023-05-15T03:34:14;101253.88;;;11.70;100.00
59787;BME280;45672;51.612;5.536;2023-05-15T03:36:40;101258.53;;;11.68;100.00
59787;BME280;45672;51.612;5.536;2023-05-15T03:39:05;101257.00;;;11.66;100.00
59787;BME280;45672;51.612;5.536;2023-05-15T03:41:30;101247.09;;;11.58;100.00
59787;BME280;45672;51.612;5.536;2023-05-15T03:43:56;101243.75;;;11.56;100.00
59787;BME280;45672;51.612;5.536;2023-05-15T03:46:21;101248.38;;;11.54;100.00
59787;BME280;45672;51.612;5.536;2023-05-15T03:48:46;101250.53;;;11.50;100.00
59787;BME280;45672;51.612;5.536;2023-05-15T03:51:12;101247.16;;;11.48;100.00
59787;BME280;45672;51.612;5.536;2023-05-15T03:53:37;101242.28;;;11.44;100.00
59787;BME280;45672;51.612;5.536;2023-05-15T03:56:02;101245.81;;;11.44;100.00
59787;BME280;45672;51.612;5.536;2023-05-15T03:58:28;101241.31;;;11.45;100.00
59787;BME280;45672;51.612;5.536;2023-05-15T04:00:56;101241.63;;;11.42;100.00
59787;BME280;45672;51.612;5.536;2023-05-15T04:03:21;101250.59;;;11.41;100.00
59787;BME280;45672;51.612;5.536;2023-05-15T04:05:46;101243.06;;;11.36;100.00
59787;BME280;45672;51.612;5.536;2023-05-15T04:08:14;101246.69;;;11.35;100.00
59787;BME280;45672;51.612;5.536;2023-05-15T04:10:39;101243.63;;;11.30;100.00
59787;BME280;45672;51.612;5.536;2023-05-15T04:13:04;101248.59;;;11.25;100.00
59787;BME280;45672;51.612;5.536;2023-05-15T04:15:30;101235.28;;;11.25;100.00
59787;BME280;45672;51.612;5.536;2023-05-15T04:17:55;101239.22;;;11.20;100.00
59787;BME280;45672;51.612;5.536;2023-05-15T04:20:21;101246.22;;;11.21;100.00
59787;BME280;45672;51.612;5.536;2023-05-15T04:22:47;101251.25;;;11.25;100.00
59787;BME280;45672;51.612;5.536;2023-05-15T04:25:13;101242.97;;;11.28;100.00
59787;BME280;45672;51.612;5.536;2023-05-15T04:27:39;101241.81;;;11.30;100.00
59787;BME280;45672;51.612;5.536;2023-05-15T04:30:07;101228.34;;;11.32;100.00
59787;BME280;45672;51.612;5.536;2023-05-15T04:32:33;101244.28;;;11.42;100.00
59787;BME280;45672;51.612;5.536;2023-05-15T04:34:59;101251.19;;;11.52;100.00
59787;BME280;45672;51.612;5.536;2023-05-15T04:37:25;101242.06;;;11.55;100.00
59787;BME280;45672;51.612;5.536;2023-05-15T04:39:51;101256.00;;;11.67;100.00
59787;BME280;45672;51.612;5.536;2023-05-15T04:42:16;101256.53;;;11.70;100.00
59787;BME280;45672;51.612;5.536;2023-05-15T04:44:44;101265.75;;;11.76;100.00
59787;BME280;45672;51.612;5.536;2023-05-15T04:47:09;101267.28;;;11.79;100.00
59787;BME280;45672;51.612;5.536;2023-05-15T04:49:35;101266.16;;;11.81;100.00
59787;BME280;45672;51.612;5.536;2023-05-15T04:52:01;101277.19;;;11.86;100.00
59787;BME280;45672;51.612;5.536;2023-05-15T04:54:26;101278.19;;;11.85;100.00
59787;BME280;45672;51.612;5.536;2023-05-15T04:56:51;101286.78;;;11.79;100.00
59787;BME280;45672;51.612;5.536;2023-05-15T04:59:16;101285.56;;;11.73;100.00
59787;BME280;45672;51.612;5.536;2023-05-15T05:01:42;101293.31;;;11.67;100.00
59787;BME280;45672;51.612;5.536;2023-05-15T05:04:07;101290.66;;;11.67;100.00
59787;BME280;45672;51.612;5.536;2023-05-15T05:06:32;101287.72;;;11.70;100.00
59787;BME280;45672;51.612;5.536;2023-05-15T05:08:58;101283.97;;;11.81;100.00
59787;BME280;45672;51.612;5.536;2023-05-15T05:11:23;101281.38;;;11.89;100.00
59787;BME280;45672;51.612;5.536;2023-05-15T05:13:49;101290.47;;;11.96;100.00
59787;BME280;45672;51.612;5.536;2023-05-15T05:16:15;101289.25;;;12.09;99.71
59787;BME280;45672;51.612;5.536;2023-05-15T05:18:40;101294.25;;;12.30;99.41
59787;BME280;45672;51.612;5.536;2023-05-15T05:21:05;101291.00;;;12.44;98.26
59787;BME280;45672;51.612;5.536;2023-05-15T05:23:31;101296.31;;;12.62;97.62
59787;BME280;45672;51.612;5.536;2023-05-15T05:25:56;101297.81;;;12.91;96.12
59787;BME280;45672;51.612;5.536;2023-05-15T05:28:22;101297.84;;;12.99;95.16
59787;BME280;45672;51.612;5.536;2023-05-15T05:30:47;101304.22;;;13.06;94.90
59787;BME280;45672;51.612;5.536;2023-05-15T05:33:13;101308.38;;;13.09;94.27
59787;BME280;45672;51.612;5.536;2023-05-15T05:35:39;101312.41;;;13.05;94.56
59787;BME280;45672;51.612;5.536;2023-05-15T05:38:04;101308.72;;;13.06;93.94
59787;BME280;45672;51.612;5.536;2023-05-15T05:40:29;101304.19;;;12.98;93.44
59787;BME280;45672;51.612;5.536;2023-05-15T05:43:01;101311.03;;;13.01;93.69
59787;BME280;45672;51.612;5.536;2023-05-15T05:45:27;101313.88;;;13.07;93.84
59787;BME280;45672;51.612;5.536;2023-05-15T05:47:55;101311.78;;;13.19;93.57
59787;BME280;45672;51.612;5.536;2023-05-15T05:50:21;101313.31;;;13.30;93.18
59787;BME280;45672;51.612;5.536;2023-05-15T05:52:47;101311.53;;;13.39;92.08
59787;BME280;45672;51.612;5.536;2023-05-15T05:55:13;101308.78;;;13.65;91.10
59787;BME280;45672;51.612;5.536;2023-05-15T05:57:39;101318.50;;;13.83;89.98
59787;BME280;45672;51.612;5.536;2023-05-15T06:00:05;101305.97;;;13.91;89.19
59787;BME280;45672;51.612;5.536;2023-05-15T06:02:34;101313.19;;;13.99;88.14
59787;BME280;45672;51.612;5.536;2023-05-15T06:04:59;101316.53;;;14.18;88.03
59787;BME280;45672;51.612;5.536;2023-05-15T06:07:25;101307.66;;;14.34;86.92
59787;BME280;45672;51.612;5.536;2023-05-15T06:09:50;101311.69;;;14.38;86.08
59787;BME280;45672;51.612;5.536;2023-05-15T06:12:16;101308.47;;;14.42;85.43
59787;BME280;45672;51.612;5.536;2023-05-15T06:14:41;101313.00;;;14.58;85.75
59787;BME280;45672;51.612;5.536;2023-05-15T06:17:06;101310.97;;;14.77;84.33
59787;BME280;45672;51.612;5.536;2023-05-15T06:19:32;101312.44;;;14.96;82.89
59787;BME280;45672;51.612;5.536;2023-05-15T06:21:57;101304.75;;;14.93;82.10
59787;BME280;45672;51.612;5.536;2023-05-15T06:24:22;101312.63;;;14.78;82.01
59787;BME280;45672;51.612;5.536;2023-05-15T06:26:48;101315.69;;;14.58;81.82
59787;BME280;45672;51.612;5.536;2023-05-15T06:29:13;101321.88;;;14.51;83.20
59787;BME280;45672;51.612;5.536;2023-05-15T06:31:38;101321.22;;;14.48;82.06
59787;BME280;45672;51.612;5.536;2023-05-15T06:34:03;101323.72;;;14.42;82.60
59787;BME280;45672;51.612;5.536;2023-05-15T06:36:29;101323.06;;;14.31;82.11
59787;BME280;45672;51.612;5.536;2023-05-15T06:38:54;101320.22;;;14.25;82.41
59787;BME280;45672;51.612;5.536;2023-05-15T06:41:20;101320.88;;;14.52;82.99
59787;BME280;45672;51.612;5.536;2023-05-15T06:43:45;101301.91;;;14.86;81.11
59787;BME280;45672;51.612;5.536;2023-05-15T06:46:11;101320.47;;;14.96;79.87
59787;BME280;45672;51.612;5.536;2023-05-15T06:48:36;101318.59;;;14.96;80.13
59787;BME280;45672;51.612;5.536;2023-05-15T06:51:01;101308.88;;;15.04;78.64
59787;BME280;45672;51.612;5.536;2023-05-15T06:53:28;101316.00;;;15.59;77.47
59787;BME280;45672;51.612;5.536;2023-05-15T06:55:54;101312.47;;;15.90;74.76
59787;BME280;45672;51.612;5.536;2023-05-15T06:58:19;101301.31;;;16.40;72.16
59787;BME280;45672;51.612;5.536;2023-05-15T07:00:44;101319.47;;;16.91;68.67
59787;BME280;45672;51.612;5.536;2023-05-15T07:03:10;101321.19;;;17.28;67.59
59787;BME280;45672;51.612;5.536;2023-05-15T07:05:37;101319.72;;;17.77;66.43
59787;BME280;45672;51.612;5.536;2023-05-15T07:08:02;101319.53;;;18.78;62.02
59787;BME280;45672;51.612;5.536;2023-05-15T07:10:28;101319.84;;;20.01;58.24
59787;BME280;45672;51.612;5.536;2023-05-15T07:12:53;101316.63;;;21.04;52.91
59787;BME280;45672;51.612;5.536;2023-05-15T07:15:19;101313.63;;;22.03;50.07
59787;BME280;45672;51.612;5.536;2023-05-15T07:17:45;101315.00;;;22.63;47.74
59787;BME280;45672;51.612;5.536;2023-05-15T07:20:10;101316.47;;;23.39;45.12
59787;BME280;45672;51.612;5.536;2023-05-15T07:22:35;101316.22;;;24.02;42.98
59787;BME280;45672;51.612;5.536;2023-05-15T07:25:01;101324.44;;;24.73;42.43
59787;BME280;45672;51.612;5.536;2023-05-15T07:27:26;101327.19;;;24.85;40.22
59787;BME280;45672;51.612;5.536;2023-05-15T07:29:52;101321.84;;;24.78;40.82
59787;BME280;45672;51.612;5.536;2023-05-15T07:32:17;101328.13;;;24.90;40.59
59787;BME280;45672;51.612;5.536;2023-05-15T07:34:43;101314.69;;;25.53;39.86
59787;BME280;45672;51.612;5.536;2023-05-15T07:37:09;101316.66;;;26.21;38.83
59787;BME280;45672;51.612;5.536;2023-05-15T07:39:34;101313.56;;;26.68;37.11
59787;BME280;45672;51.612;5.536;2023-05-15T07:41:59;101308.72;;;26.92;35.82
59787;BME280;45672;51.612;5.536;2023-05-15T07:44:25;101315.78;;;27.60;34.35
59787;BME280;45672;51.612;5.536;2023-05-15T07:46:50;101318.75;;;27.80;34.15
59787;BME280;45672;51.612;5.536;2023-05-15T07:49:15;101315.34;;;27.41;33.76
59787;BME280;45672;51.612;5.536;2023-05-15T07:51:41;101312.25;;;27.59;34.03
59787;BME280;45672;51.612;5.536;2023-05-15T07:54:06;101313.50;;;28.06;32.67
59787;BME280;45672;51.612;5.536;2023-05-15T07:56:32;101319.13;;;28.64;31.31
59787;BME280;45672;51.612;5.536;2023-05-15T07:58:57;101314.97;;;29.15;30.38
59787;BME280;45672;51.612;5.536;2023-05-15T08:01:23;101309.91;;;29.65;29.28
59787;BME280;45672;51.612;5.536;2023-05-15T08:03:48;101317.38;;;30.05;29.64
59787;BME280;45672;51.612;5.536;2023-05-15T08:06:13;101311.31;;;30.03;28.91
59787;BME280;45672;51.612;5.536;2023-05-15T08:08:40;101318.44;;;29.89;27.88
59787;BME280;45672;51.612;5.536;2023-05-15T08:11:05;101306.63;;;30.30;28.29
59787;BME280;45672;51.612;5.536;2023-05-15T08:13:30;101306.31;;;30.62;27.83
59787;BME280;45672;51.612;5.536;2023-05-15T08:15:56;101311.16;;;30.91;26.63
59787;BME280;45672;51.612;5.536;2023-05-15T08:18:21;101301.94;;;31.26;26.82
59787;BME280;45672;51.612;5.536;2023-05-15T08:20:46;101303.84;;;31.76;26.53
59787;BME280;45672;51.612;5.536;2023-05-15T08:23:12;101301.06;;;32.16;25.60
59787;BME280;45672;51.612;5.536;2023-05-15T08:25:37;101297.56;;;32.34;25.19
59787;BME280;45672;51.612;5.536;2023-05-15T08:28:03;101302.31;;;32.53;24.64
59787;BME280;45672;51.612;5.536;2023-05-15T08:30:28;101302.81;;;32.55;24.83
59787;BME280;45672;51.612;5.536;2023-05-15T08:32:54;101302.44;;;32.91;23.90
59787;BME280;45672;51.612;5.536;2023-05-15T08:35:19;101307.34;;;33.75;22.93
59787;BME280;45672;51.612;5.536;2023-05-15T08:37:44;101311.81;;;34.51;22.43
59787;BME280;45672;51.612;5.536;2023-05-15T08:40:10;101305.75;;;33.69;22.96
59787;BME280;45672;51.612;5.536;2023-05-15T08:42:44;101303.66;;;32.31;25.56
59787;BME280;45672;51.612;5.536;2023-05-15T08:45:12;101308.03;;;32.32;24.68
59787;BME280;45672;51.612;5.536;2023-05-15T08:47:39;101307.56;;;31.90;25.01
59787;BME280;45672;51.612;5.536;2023-05-15T08:50:15;101313.00;;;31.16;26.08
59787;BME280;45672;51.612;5.536;2023-05-15T08:52:45;101300.38;;;29.88;26.99
59787;BME280;45672;51.612;5.536;2023-05-15T08:55:12;101302.19;;;28.72;29.16
59787;BME280;45672;51.612;5.536;2023-05-15T08:57:38;101301.50;;;27.80;30.82
59787;BME280;45672;51.612;5.536;2023-05-15T09:00:04;101294.94;;;26.82;31.98
59787;BME280;45672;51.612;5.536;2023-05-15T09:02:35;101295.25;;;26.29;33.18
59787;BME280;45672;51.612;5.536;2023-05-15T09:05:01;101296.81;;;25.91;33.85
59787;BME280;45672;51.612;5.536;2023-05-15T09:07:29;101293.88;;;25.64;34.37
59787;BME280;45672;51.612;5.536;2023-05-15T09:09:56;101294.00;;;25.28;34.96
59787;BME280;45672;51.612;5.536;2023-05-15T09:12:23;101290.91;;;25.08;35.97
59787;BME280;45672;51.612;5.536;2023-05-15T09:14:49;101299.13;;;25.25;36.44
59787;BME280;45672;51.612;5.536;2023-05-15T09:17:15;101297.03;;;25.56;35.64
59787;BME280;45672;51.612;5.536;2023-05-15T09:19:41;101298.38;;;25.87;35.28
59787;BME280;45672;51.612;5.536;2023-05-15T09:22:17;101301.19;;;26.43;34.72
59787;BME280;45672;51.612;5.536;2023-05-15T09:24:47;101305.13;;;26.87;33.76
59787;BME280;45672;51.612;5.536;2023-05-15T09:27:15;101296.28;;;26.62;33.39
59787;BME280;45672;51.612;5.536;2023-05-15T09:29:40;101296.72;;;27.15;32.93
59787;BME280;45672;51.612;5.536;2023-05-15T09:32:11;101290.09;;;26.89;32.07
59787;BME280;45672;51.612;5.536;2023-05-15T09:34:40;101291.56;;;26.58;33.16
59787;BME280;45672;51.612;5.536;2023-05-15T09:37:08;101300.94;;;25.94;33.96
59787;BME280;45672;51.612;5.536;2023-05-15T09:39:41;101294.09;;;25.74;35.15
59787;BME280;45672;51.612;5.536;2023-05-15T09:42:11;101288.31;;;25.42;35.50
59787;BME280;45672;51.612;5.536;2023-05-15T09:44:41;101294.28;;;24.86;36.49
59787;BME280;45672;51.612;5.536;2023-05-15T09:47:08;101288.75;;;24.69;37.12
59787;BME280;45672;51.612;5.536;2023-05-15T09:49:34;101291.34;;;24.64;37.21
59787;BME280;45672;51.612;5.536;2023-05-15T09:51:59;101290.50;;;24.64;37.33
59787;BME280;45672;51.612;5.536;2023-05-15T09:54:26;101286.38;;;24.49;37.06
59787;BME280;45672;51.612;5.536;2023-05-15T09:56:55;101289.66;;;24.16;37.98
59787;BME280;45672;51.612;5.536;2023-05-15T09:59:20;101284.19;;;23.92;38.43
59787;BME280;45672;51.612;5.536;2023-05-15T10:01:50;101288.59;;;23.74;38.74
59787;BME280;45672;51.612;5.536;2023-05-15T10:04:16;101288.38;;;23.76;38.48
59787;BME280;45672;51.612;5.536;2023-05-15T10:06:45;101301.06;;;23.52;39.19
59787;BME280;45672;51.612;5.536;2023-05-15T10:09:11;101303.44;;;23.30;39.59
59787;BME280;45672;51.612;5.536;2023-05-15T10:11:43;101312.47;;;22.86;40.87
59787;BME280;45672;51.612;5.536;2023-05-15T10:14:10;101307.72;;;22.63;41.11
59787;BME280;45672;51.612;5.536;2023-05-15T10:16:37;101302.81;;;22.53;41.99
59787;BME280;45672;51.612;5.536;2023-05-15T10:19:04;101309.22;;;22.09;43.35
59787;BME280;45672;51.612;5.536;2023-05-15T10:21:36;101309.75;;;21.92;44.00
59787;BME280;45672;51.612;5.536;2023-05-15T10:24:03;101312.03;;;21.63;45.22
59787;BME280;45672;51.612;5.536;2023-05-15T10:26:34;101316.78;;;21.68;45.68
59787;BME280;45672;51.612;5.536;2023-05-15T10:29:01;101313.53;;;21.59;45.86
59787;BME280;45672;51.612;5.536;2023-05-15T10:31:29;101305.34;;;21.66;45.93
59787;BME280;45672;51.612;5.536;2023-05-15T10:33:55;101311.75;;;21.26;47.32
59787;BME280;45672;51.612;5.536;2023-05-15T10:36:21;101302.69;;;21.07;47.28
59787;BME280;45672;51.612;5.536;2023-05-15T10:38:47;101310.81;;;21.00;47.36
59787;BME280;45672;51.612;5.536;2023-05-15T10:41:16;101308.91;;;21.14;47.08
59787;BME280;45672;51.612;5.536;2023-05-15T10:43:42;101315.53;;;21.25;46.94
59787;BME280;45672;51.612;5.536;2023-05-15T10:46:08;101305.28;;;21.34;47.06
59787;BME280;45672;51.612;5.536;2023-05-15T10:48:35;101302.22;;;21.24;47.13
59787;BME280;45672;51.612;5.536;2023-05-15T10:51:00;101293.69;;;21.20;47.56
59787;BME280;45672;51.612;5.536;2023-05-15T10:53:26;101304.66;;;21.32;47.87
59787;BME280;45672;51.612;5.536;2023-05-15T10:55:51;101304.53;;;21.65;47.90
59787;BME280;45672;51.612;5.536;2023-05-15T10:58:23;101301.13;;;21.77;47.27
59787;BME280;45672;51.612;5.536;2023-05-15T11:00:49;101298.66;;;21.68;46.16
59787;BME280;45672;51.612;5.536;2023-05-15T11:03:33;101305.00;;;21.56;46.95
59787;BME280;45672;51.612;5.536;2023-05-15T11:06:06;101301.69;;;21.54;47.20
59787;BME280;45672;51.612;5.536;2023-05-15T11:08:35;101306.31;;;21.33;48.44
59787;BME280;45672;51.612;5.536;2023-05-15T11:11:00;101287.47;;;21.13;49.19
59787;BME280;45672;51.612;5.536;2023-05-15T11:13:26;101306.59;;;21.18;49.64
59787;BME280;45672;51.612;5.536;2023-05-15T11:15:52;101299.59;;;21.04;49.97
59787;BME280;45672;51.612;5.536;2023-05-15T11:18:19;101308.81;;;20.69;50.74
59787;BME280;45672;51.612;5.536;2023-05-15T11:23:21;101297.81;;;20.04;53.13
59787;BME280;45672;51.612;5.536;2023-05-15T11:25:55;101302.78;;;19.87;53.59
59787;BME280;45672;51.612;5.536;2023-05-15T11:28:23;101301.28;;;19.77;54.21
59787;BME280;45672;51.612;5.536;2023-05-15T11:30:52;101303.19;;;19.84;54.52
59787;BME280;45672;51.612;5.536;2023-05-15T11:33:19;101302.56;;;19.88;54.94
59787;BME280;45672;51.612;5.536;2023-05-15T11:35:48;101297.19;;;19.82;55.67
59787;BME280;45672;51.612;5.536;2023-05-15T11:38:22;101306.44;;;19.66;55.51
59787;BME280;45672;51.612;5.536;2023-05-15T11:40:56;101299.78;;;19.55;56.16
59787;BME280;45672;51.612;5.536;2023-05-15T11:51:19;101290.25;;;19.04;59.26
59787;BME280;45672;51.612;5.536;2023-05-15T11:53:45;101288.19;;;19.06;59.68
59787;BME280;45672;51.612;5.536;2023-05-15T11:56:22;101294.19;;;19.01;59.65
59787;BME280;45672;51.612;5.536;2023-05-15T11:58:49;101297.44;;;18.90;61.13
59787;BME280;45672;51.612;5.536;2023-05-15T12:01:15;101297.28;;;18.70;61.27
59787;BME280;45672;51.612;5.536;2023-05-15T12:03:40;101291.69;;;18.71;61.80
59787;BME280;45672;51.612;5.536;2023-05-15T12:06:05;101294.94;;;18.60;61.98
59787;BME280;45672;51.612;5.536;2023-05-15T12:08:32;101302.00;;;18.61;62.78
59787;BME280;45672;51.612;5.536;2023-05-15T12:10:58;101298.44;;;18.54;62.83
59787;BME280;45672;51.612;5.536;2023-05-15T12:13:24;101298.44;;;18.54;62.98
59787;BME280;45672;51.612;5.536;2023-05-15T12:15:49;101295.28;;;18.43;63.19
59787;BME280;45672;51.612;5.536;2023-05-15T12:18:15;101290.31;;;18.47;63.10
59787;BME280;45672;51.612;5.536;2023-05-15T12:20:40;101288.75;;;18.59;62.92
59787;BME280;45672;51.612;5.536;2023-05-15T12:23:16;101293.97;;;19.03;61.54
59787;BME280;45672;51.612;5.536;2023-05-15T12:25:42;101292.59;;;19.14;60.66
59787;BME280;45672;51.612;5.536;2023-05-15T12:28:08;101298.34;;;19.04;60.06
59787;BME280;45672;51.612;5.536;2023-05-15T12:30:35;101292.94;;;19.04;60.71
59787;BME280;45672;51.612;5.536;2023-05-15T12:33:03;101286.69;;;18.97;61.24
59787;BME280;45672;51.612;5.536;2023-05-15T12:35:29;101287.31;;;18.92;61.50
59787;BME280;45672;51.612;5.536;2023-05-15T12:37:54;101288.13;;;18.92;61.95
59787;BME280;45672;51.612;5.536;2023-05-15T12:40:20;101287.72;;;18.60;62.28
59787;BME280;45672;51.612;5.536;2023-05-15T12:42:50;101294.34;;;18.36;64.33
59787;BME280;45672;51.612;5.536;2023-05-15T12:45:18;101294.31;;;18.30;64.76
59787;BME280;45672;51.612;5.536;2023-05-15T12:47:46;101296.06;;;18.16;65.83
59787;BME280;45672;51.612;5.536;2023-05-15T12:50:19;101299.47;;;18.24;65.82
59787;BME280;45672;51.612;5.536;2023-05-15T12:53:05;101291.25;;;18.33;65.03
59787;BME280;45672;51.612;5.536;2023-05-15T12:55:33;101294.34;;;18.36;65.66
59787;BME280;45672;51.612;5.536;2023-05-15T12:58:07;101298.09;;;18.35;65.54
59787;BME280;45672;51.612;5.536;2023-05-15T13:00:35;101296.16;;;18.29;66.59
59787;BME280;45672;51.612;5.536;2023-05-15T13:03:01;101301.06;;;18.19;67.16
59787;BME280;45672;51.612;5.536;2023-05-15T13:05:29;101297.06;;;18.08;67.19
59787;BME280;45672;51.612;5.536;2023-05-15T13:07:57;101296.22;;;18.07;67.47
59787;BME280;45672;51.612;5.536;2023-05-15T13:10:23;101296.78;;;18.03;68.09
59787;BME280;45672;51.612;5.536;2023-05-15T13:12:51;101297.88;;;18.08;67.87
59787;BME280;45672;51.612;5.536;2023-05-15T13:18:10;101298.47;;;18.04;67.91